Aviation Digital Data Service (ADDS)

Output produced by METARs form (0951 UTC 23 April 2017)
found at http://www.aviationweather.gov/adds/metars/
 
TAF LDSB 221125Z 2212/2312 29009KT CAVOK TX14/2311Z TN09/2304Z 
     BECMG 2310/2312 20007KT
       
LDDU 230930Z 17010KT 120V210 9999 FEW027 14/08 Q1019 BECMG 19008KT
TAF LDDU 230525Z 2306/2406 08007KT 9999 FEW040 TX15/2313Z TN06/2403Z 
     TEMPO 2306/2309 12007KT 
     TEMPO 2320/2406 08009KT
       
LDOS 230930Z 28012KT 9999 FEW007 SCT040 08/04 Q1021
TAF AMD LDOS 230658Z 2306/2406 34012KT 9999 SCT035 TX14/2313Z TN02/2404Z 
     TEMPO 2306/2309 24010KT 
     PROB40 
     TEMPO 2311/2315 SHRA FEW030TCU SCT040 
     BECMG 2401/2403 VRB02KT 
     PROB30 2401/2406 0500 FG
       
LDPL 230930Z 09019KT CAVOK 14/03 Q1018 NOSIG
TAF LDPL 230525Z 2306/2406 05008KT CAVOK TX16/2313Z TN09/2306Z 
     TEMPO 2308/2314 09012KT 
     BECMG 2318/2320 06012KT
       
LDRI 230930Z 13011KT CAVOK 14/01 Q1019
TAF LDRI 230525Z 2306/2406 VRB02KT 9999 SCT050 TX16/2313Z TN08/2402Z 
     TEMPO 2306/2308 06010KT 
     TEMPO 2308/2318 14006KT
       
LDDU 230930Z 17010KT 120V210 9999 FEW027 14/08 Q1019 BECMG 19008KT
TAF LDDU 230525Z 2306/2406 08007KT 9999 FEW040 TX15/2313Z TN06/2403Z 
     TEMPO 2306/2309 12007KT 
     TEMPO 2320/2406 08009KT
       
LDLO 230900Z 10009KT 9999 FEW060 14/06 Q1018
TAF LDLO 230605Z 2307/2406 08008KT 9999 SCT050 TX16/2312Z TN12/2404Z 
     BECMG 2320/2322 15010KT
       
LDOS 230930Z 28012KT 9999 FEW007 SCT040 08/04 Q1021
TAF AMD LDOS 230658Z 2306/2406 34012KT 9999 SCT035 TX14/2313Z TN02/2404Z 
     TEMPO 2306/2309 24010KT 
     PROB40 
     TEMPO 2311/2315 SHRA FEW030TCU SCT040 
     BECMG 2401/2403 VRB02KT 
     PROB30 2401/2406 0500 FG
       
LDPL 230930Z 09019KT CAVOK 14/03 Q1018 NOSIG
TAF LDPL 230525Z 2306/2406 05008KT CAVOK TX16/2313Z TN09/2306Z 
     TEMPO 2308/2314 09012KT 
     BECMG 2318/2320 06012KT
       
LDRI 230930Z 13011KT CAVOK 14/01 Q1019
TAF LDRI 230525Z 2306/2406 VRB02KT 9999 SCT050 TX16/2313Z TN08/2402Z 
     TEMPO 2306/2308 06010KT 
     TEMPO 2308/2318 14006KT
       
TAF LDSB 221125Z 2212/2312 29009KT CAVOK TX14/2311Z TN09/2304Z 
     BECMG 2310/2312 20007KT
       
LDSP 230930Z VRB02KT 9999 SCT065 14/05 Q1019 NOSIG
TAF LDSP 230525Z 2306/2406 VRB02KT 9999 SCT060 TX17/2313Z TN08/2404Z 
     BECMG 2311/2313 23008KT 
     BECMG 2315/2317 10006KT
       
LDZA 230930Z 23005KT 160V290 9999 SCT010 07/04 Q1022 NOSIG
TAF AMD LDZA 230757Z 2307/2406 VRB02KT 9999 BKN035 TX13/2314Z TN04/2404Z 
     TEMPO 2307/2311 23008KT 
     PROB30 
     TEMPO 2310/2315 SHRA FEW035TCU SCT040
       
LDZD 230930Z 10008KT 060V140 9999 OVC040 12/03 Q1019 NOSIG
TAF AMD LDZD 230824Z 2308/2406 06008KT 9999 SCT060 TX18/2313Z TN07/2403Z 
     TEMPO 2308/2311 09012KT 
     TEMPO 2313/2316 28008KT 
     BECMG 2318/2320 10005KT
       
LDSP 230930Z VRB02KT 9999 SCT065 14/05 Q1019 NOSIG
TAF LDSP 230525Z 2306/2406 VRB02KT 9999 SCT060 TX17/2313Z TN08/2404Z 
     BECMG 2311/2313 23008KT 
     BECMG 2315/2317 10006KT
       
LDZD 230930Z 10008KT 060V140 9999 OVC040 12/03 Q1019 NOSIG
TAF AMD LDZD 230824Z 2308/2406 06008KT 9999 SCT060 TX18/2313Z TN07/2403Z 
     TEMPO 2308/2311 09012KT 
     TEMPO 2313/2316 28008KT 
     BECMG 2318/2320 10005KT
       
LDZA 230930Z 23005KT 160V290 9999 SCT010 07/04 Q1022 NOSIG
TAF AMD LDZA 230757Z 2307/2406 VRB02KT 9999 BKN035 TX13/2314Z TN04/2404Z 
     TEMPO 2307/2311 23008KT 
     PROB30 
     TEMPO 2310/2315 SHRA FEW035TCU SCT040